sensor_id;sensor_type;location;lat;lon;timestamp;temperature;humidity
9752;DHT22;4915;51.226;5.966;2022-07-05T00:01:28;17.60;99.90
9752;DHT22;4915;51.226;5.966;2022-07-05T00:03:55;17.60;95.80
9752;DHT22;4915;51.226;5.966;2022-07-05T00:06:22;17.60;99.90
9752;DHT22;4915;51.226;5.966;2022-07-05T00:08:50;17.60;80.60
9752;DHT22;4915;51.226;5.966;2022-07-05T00:11:17;17.60;1.00
9752;DHT22;4915;51.226;5.966;2022-07-05T00:13:44;17.60;1.00
9752;DHT22;4915;51.226;5.966;2022-07-05T00:16:12;17.60;1.00
9752;DHT22;4915;51.226;5.966;2022-07-05T00:18:39;17.60;1.00
9752;DHT22;4915;51.226;5.966;2022-07-05T00:21:06;17.60;1.00
9752;DHT22;4915;51.226;5.966;2022-07-05T00:23:34;17.60;1.00
9752;DHT22;4915;51.226;5.966;2022-07-05T00:26:01;17.50;1.00
9752;DHT22;4915;51.226;5.966;2022-07-05T00:28:28;17.50;1.00
9752;DHT22;4915;51.226;5.966;2022-07-05T00:30:55;17.40;1.00
9752;DHT22;4915;51.226;5.966;2022-07-05T00:33:23;17.30;1.00
9752;DHT22;4915;51.226;5.966;2022-07-05T00:35:50;17.30;25.50
9752;DHT22;4915;51.226;5.966;2022-07-05T00:38:17;17.30;39.30
9752;DHT22;4915;51.226;5.966;2022-07-05T00:40:44;17.30;17.60
9752;DHT22;4915;51.226;5.966;2022-07-05T00:43:11;17.10;99.90
9752;DHT22;4915;51.226;5.966;2022-07-05T00:45:38;17.00;99.90
9752;DHT22;4915;51.226;5.966;2022-07-05T00:48:05;17.00;99.90
9752;DHT22;4915;51.226;5.966;2022-07-05T00:50:34;17.00;99.90
9752;DHT22;4915;51.226;5.966;2022-07-05T00:53:01;17.00;99.90
9752;DHT22;4915;51.226;5.966;2022-07-05T00:55:28;16.90;99.90
9752;DHT22;4915;51.226;5.966;2022-07-05T00:57:55;16.70;99.90
9752;DHT22;4915;51.226;5.966;2022-07-05T01:00:23;16.70;99.90
9752;DHT22;4915;51.226;5.966;2022-07-05T01:02:51;16.60;99.90
9752;DHT22;4915;51.226;5.966;2022-07-05T01:05:26;16.60;99.90
9752;DHT22;4915;51.226;5.966;2022-07-05T01:07:55;16.50;99.90
9752;DHT22;4915;51.226;5.966;2022-07-05T01:10:23;16.50;99.90
9752;DHT22;4915;51.226;5.966;2022-07-05T01:12:50;16.50;99.90
9752;DHT22;4915;51.226;5.966;2022-07-05T01:15:20;16.50;99.90
9752;DHT22;4915;51.226;5.966;2022-07-05T01:17:47;16.50;99.90
9752;DHT22;4915;51.226;5.966;2022-07-05T01:20:14;16.50;99.90
9752;DHT22;4915;51.226;5.966;2022-07-05T01:22:52;16.60;99.90
9752;DHT22;4915;51.226;5.966;2022-07-05T01:25:20;16.60;99.90
9752;DHT22;4915;51.226;5.966;2022-07-05T01:27:48;16.60;99.90
9752;DHT22;4915;51.226;5.966;2022-07-05T01:30:16;16.60;99.90
9752;DHT22;4915;51.226;5.966;2022-07-05T01:32:43;16.60;99.90
9752;DHT22;4915;51.226;5.966;2022-07-05T01:35:11;16.60;99.90
9752;DHT22;4915;51.226;5.966;2022-07-05T01:37:39;16.50;99.90
9752;DHT22;4915;51.226;5.966;2022-07-05T01:40:08;16.40;99.90
9752;DHT22;4915;51.226;5.966;2022-07-05T01:42:36;16.30;99.90
9752;DHT22;4915;51.226;5.966;2022-07-05T01:45:03;16.30;99.90
9752;DHT22;4915;51.226;5.966;2022-07-05T01:47:32;16.30;99.90
9752;DHT22;4915;51.226;5.966;2022-07-05T01:50:04;16.30;99.90
9752;DHT22;4915;51.226;5.966;2022-07-05T01:52:32;16.40;99.90
9752;DHT22;4915;51.226;5.966;2022-07-05T01:55:00;16.40;99.90
9752;DHT22;4915;51.226;5.966;2022-07-05T01:57:30;16.20;99.90
9752;DHT22;4915;51.226;5.966;2022-07-05T01:59:57;15.80;99.90
9752;DHT22;4915;51.226;5.966;2022-07-05T02:02:24;15.60;99.90
9752;DHT22;4915;51.226;5.966;2022-07-05T02:04:51;15.30;99.90
9752;DHT22;4915;51.226;5.966;2022-07-05T02:07:18;15.10;99.90
9752;DHT22;4915;51.226;5.966;2022-07-05T02:09:45;15.00;99.90
9752;DHT22;4915;51.226;5.966;2022-07-05T02:12:12;15.10;99.90
9752;DHT22;4915;51.226;5.966;2022-07-05T02:14:40;15.10;99.90
9752;DHT22;4915;51.226;5.966;2022-07-05T02:17:07;15.20;99.90
9752;DHT22;4915;51.226;5.966;2022-07-05T02:19:35;15.30;99.90
9752;DHT22;4915;51.226;5.966;2022-07-05T02:22:04;15.30;99.90
9752;DHT22;4915;51.226;5.966;2022-07-05T02:24:31;15.30;99.90
9752;DHT22;4915;51.226;5.966;2022-07-05T02:26:58;15.30;99.90
9752;DHT22;4915;51.226;5.966;2022-07-05T02:29:26;15.30;99.90
9752;DHT22;4915;51.226;5.966;2022-07-05T02:31:54;15.40;99.90
9752;DHT22;4915;51.226;5.966;2022-07-05T02:34:21;15.40;99.90
9752;DHT22;4915;51.226;5.966;2022-07-05T02:36:48;15.50;99.90
9752;DHT22;4915;51.226;5.966;2022-07-05T02:39:15;15.40;99.90
9752;DHT22;4915;51.226;5.966;2022-07-05T02:41:42;15.40;99.90
9752;DHT22;4915;51.226;5.966;2022-07-05T02:44:09;15.30;99.90
9752;DHT22;4915;51.226;5.966;2022-07-05T02:46:36;15.10;99.90
9752;DHT22;4915;51.226;5.966;2022-07-05T02:49:05;15.00;99.90
9752;DHT22;4915;51.226;5.966;2022-07-05T02:51:32;15.00;99.90
9752;DHT22;4915;51.226;5.966;2022-07-05T02:53:59;14.90;99.90
9752;DHT22;4915;51.226;5.966;2022-07-05T02:56:26;14.90;99.90
9752;DHT22;4915;51.226;5.966;2022-07-05T02:58:53;14.80;99.90
9752;DHT22;4915;51.226;5.966;2022-07-05T03:01:20;14.70;99.90
9752;DHT22;4915;51.226;5.966;2022-07-05T03:03:47;14.60;99.90
9752;DHT22;4915;51.226;5.966;2022-07-05T03:06:16;14.50;99.90
9752;DHT22;4915;51.226;5.966;2022-07-05T03:08:43;14.40;99.90
9752;DHT22;4915;51.226;5.966;2022-07-05T03:11:10;14.20;99.90
9752;DHT22;4915;51.226;5.966;2022-07-05T03:13:37;14.10;99.90
9752;DHT22;4915;51.226;5.966;2022-07-05T03:16:04;13.90;99.90
9752;DHT22;4915;51.226;5.966;2022-07-05T03:18:31;13.90;99.90
9752;DHT22;4915;51.226;5.966;2022-07-05T03:20:59;13.90;99.90
9752;DHT22;4915;51.226;5.966;2022-07-05T03:23:27;13.90;99.90
9752;DHT22;4915;51.226;5.966;2022-07-05T03:25:54;14.00;99.90
9752;DHT22;4915;51.226;5.966;2022-07-05T03:28:21;14.10;99.90
9752;DHT22;4915;51.226;5.966;2022-07-05T03:30:48;14.10;99.90
9752;DHT22;4915;51.226;5.966;2022-07-05T03:33:15;14.10;99.90
9752;DHT22;4915;51.226;5.966;2022-07-05T03:35:42;14.20;99.90
9752;DHT22;4915;51.226;5.966;2022-07-05T03:38:09;14.10;99.90
9752;DHT22;4915;51.226;5.966;2022-07-05T03:40:38;14.20;99.90
9752;DHT22;4915;51.226;5.966;2022-07-05T03:43:05;14.20;99.90
9752;DHT22;4915;51.226;5.966;2022-07-05T03:45:32;14.10;99.90
9752;DHT22;4915;51.226;5.966;2022-07-05T03:47:59;14.20;99.90
9752;DHT22;4915;51.226;5.966;2022-07-05T03:50:27;14.10;99.90
9752;DHT22;4915;51.226;5.966;2022-07-05T03:52:54;14.20;99.90
9752;DHT22;4915;51.226;5.966;2022-07-05T03:55:21;14.20;99.90
9752;DHT22;4915;51.226;5.966;2022-07-05T03:57:49;14.20;99.90
9752;DHT22;4915;51.226;5.966;2022-07-05T04:00:17;14.20;99.90
9752;DHT22;4915;51.226;5.966;2022-07-05T04:02:44;14.20;99.90
9752;DHT22;4915;51.226;5.966;2022-07-05T04:05:11;14.30;99.90
9752;DHT22;4915;51.226;5.966;2022-07-05T04:07:48;14.30;99.90
9752;DHT22;4915;51.226;5.966;2022-07-05T04:10:15;14.20;99.90
9752;DHT22;4915;51.226;5.966;2022-07-05T04:12:43;14.00;99.90
9752;DHT22;4915;51.226;5.966;2022-07-05T04:15:12;13.90;99.90
9752;DHT22;4915;51.226;5.966;2022-07-05T04:17:46;13.90;99.90
9752;DHT22;4915;51.226;5.966;2022-07-05T04:20:13;14.00;99.90
9752;DHT22;4915;51.226;5.966;2022-07-05T04:22:41;14.10;99.90
9752;DHT22;4915;51.226;5.966;2022-07-05T04:25:08;14.10;99.90
9752;DHT22;4915;51.226;5.966;2022-07-05T04:27:44;14.10;99.90
9752;DHT22;4915;51.226;5.966;2022-07-05T04:30:14;14.10;99.90
9752;DHT22;4915;51.226;5.966;2022-07-05T04:32:42;14.10;99.90
9752;DHT22;4915;51.226;5.966;2022-07-05T04:35:09;14.20;99.90
9752;DHT22;4915;51.226;5.966;2022-07-05T04:37:37;14.40;99.90
9752;DHT22;4915;51.226;5.966;2022-07-05T04:40:06;14.50;99.90
9752;DHT22;4915;51.226;5.966;2022-07-05T04:42:33;14.50;99.90
9752;DHT22;4915;51.226;5.966;2022-07-05T04:45:01;14.50;99.90
9752;DHT22;4915;51.226;5.966;2022-07-05T04:47:30;14.60;99.90
9752;DHT22;4915;51.226;5.966;2022-07-05T04:49:57;14.70;99.90
9752;DHT22;4915;51.226;5.966;2022-07-05T04:52:25;14.90;99.90
9752;DHT22;4915;51.226;5.966;2022-07-05T04:54:52;15.00;99.90
9752;DHT22;4915;51.226;5.966;2022-07-05T04:57:19;15.00;99.90
9752;DHT22;4915;51.226;5.966;2022-07-05T04:59:46;15.10;99.90
9752;DHT22;4915;51.226;5.966;2022-07-05T05:02:13;15.30;99.90
9752;DHT22;4915;51.226;5.966;2022-07-05T05:04:42;15.50;99.90
9752;DHT22;4915;51.226;5.966;2022-07-05T05:07:09;15.70;99.90
9752;DHT22;4915;51.226;5.966;2022-07-05T05:09:36;15.80;99.90
9752;DHT22;4915;51.226;5.966;2022-07-05T05:12:04;15.80;99.90
9752;DHT22;4915;51.226;5.966;2022-07-05T05:14:31;16.00;99.90
9752;DHT22;4915;51.226;5.966;2022-07-05T05:16:58;16.40;99.90
9752;DHT22;4915;51.226;5.966;2022-07-05T05:19:25;17.00;99.90
9752;DHT22;4915;51.226;5.966;2022-07-05T05:21:54;17.50;99.90
9752;DHT22;4915;51.226;5.966;2022-07-05T05:24:21;18.10;99.90
9752;DHT22;4915;51.226;5.966;2022-07-05T05:26:48;18.50;99.90
9752;DHT22;4915;51.226;5.966;2022-07-05T05:29:16;18.90;99.90
9752;DHT22;4915;51.226;5.966;2022-07-05T05:31:43;19.20;99.90
9752;DHT22;4915;51.226;5.966;2022-07-05T05:34:10;19.50;99.90
9752;DHT22;4915;51.226;5.966;2022-07-05T05:36:37;20.30;99.90
9752;DHT22;4915;51.226;5.966;2022-07-05T05:39:06;20.30;99.90
9752;DHT22;4915;51.226;5.966;2022-07-05T05:41:33;20.50;99.90
9752;DHT22;4915;51.226;5.966;2022-07-05T05:44:01;20.70;99.90
9752;DHT22;4915;51.226;5.966;2022-07-05T05:46:28;20.80;99.90
9752;DHT22;4915;51.226;5.966;2022-07-05T05:48:55;21.90;99.90
9752;DHT22;4915;51.226;5.966;2022-07-05T05:51:22;22.50;99.90
9752;DHT22;4915;51.226;5.966;2022-07-05T05:53:49;22.40;92.40
9752;DHT22;4915;51.226;5.966;2022-07-05T05:56:18;21.60;34.70
9752;DHT22;4915;51.226;5.966;2022-07-05T05:58:45;20.90;99.90
9752;DHT22;4915;51.226;5.966;2022-07-05T06:01:12;20.70;99.90
9752;DHT22;4915;51.226;5.966;2022-07-05T06:03:39;21.10;1.00
9752;DHT22;4915;51.226;5.966;2022-07-05T06:06:06;21.30;99.90
9752;DHT22;4915;51.226;5.966;2022-07-05T06:08:33;21.10;99.90
9752;DHT22;4915;51.226;5.966;2022-07-05T06:11:00;21.00;99.90
9752;DHT22;4915;51.226;5.966;2022-07-05T06:13:31;21.40;99.90
9752;DHT22;4915;51.226;5.966;2022-07-05T06:15:58;21.90;1.00
9752;DHT22;4915;51.226;5.966;2022-07-05T06:18:25;22.20;99.90
9752;DHT22;4915;51.226;5.966;2022-07-05T06:20:52;22.60;1.00
9752;DHT22;4915;51.226;5.966;2022-07-05T06:23:19;22.80;1.00
9752;DHT22;4915;51.226;5.966;2022-07-05T06:25:46;22.60;99.90
9752;DHT22;4915;51.226;5.966;2022-07-05T06:28:14;21.90;99.90
9752;DHT22;4915;51.226;5.966;2022-07-05T06:30:42;21.60;1.00
9752;DHT22;4915;51.226;5.966;2022-07-05T06:33:09;20.90;40.50
9752;DHT22;4915;51.226;5.966;2022-07-05T06:35:36;20.70;1.00
9752;DHT22;4915;51.226;5.966;2022-07-05T06:38:04;20.50;1.00
9752;DHT22;4915;51.226;5.966;2022-07-05T06:40:33;20.70;99.90
9752;DHT22;4915;51.226;5.966;2022-07-05T06:43:03;21.00;99.90
9752;DHT22;4915;51.226;5.966;2022-07-05T06:45:30;21.20;99.90
9752;DHT22;4915;51.226;5.966;2022-07-05T06:48:01;21.30;1.00
9752;DHT22;4915;51.226;5.966;2022-07-05T06:50:30;21.30;1.00
9752;DHT22;4915;51.226;5.966;2022-07-05T06:52:57;21.40;1.00
9752;DHT22;4915;51.226;5.966;2022-07-05T06:55:25;22.00;1.00
9752;DHT22;4915;51.226;5.966;2022-07-05T06:57:57;21.90;1.00
9752;DHT22;4915;51.226;5.966;2022-07-05T07:00:25;22.30;99.90
9752;DHT22;4915;51.226;5.966;2022-07-05T07:02:53;21.80;99.90
9752;DHT22;4915;51.226;5.966;2022-07-05T07:05:21;21.50;99.90
9752;DHT22;4915;51.226;5.966;2022-07-05T07:07:48;21.40;1.00
9752;DHT22;4915;51.226;5.966;2022-07-05T07:10:33;21.50;99.90
9752;DHT22;4915;51.226;5.966;2022-07-05T07:13:00;21.60;1.00
9752;DHT22;4915;51.226;5.966;2022-07-05T07:15:28;22.80;99.90
9752;DHT22;4915;51.226;5.966;2022-07-05T07:17:56;22.70;1.00
9752;DHT22;4915;51.226;5.966;2022-07-05T07:20:25;23.50;1.00
9752;DHT22;4915;51.226;5.966;2022-07-05T07:22:52;23.30;99.90
9752;DHT22;4915;51.226;5.966;2022-07-05T07:25:19;23.20;1.00
9752;DHT22;4915;51.226;5.966;2022-07-05T07:27:50;23.60;21.10
9752;DHT22;4915;51.226;5.966;2022-07-05T07:30:20;23.40;99.90
9752;DHT22;4915;51.226;5.966;2022-07-05T07:32:47;22.20;99.90
9752;DHT22;4915;51.226;5.966;2022-07-05T07:35:14;22.00;1.00
9752;DHT22;4915;51.226;5.966;2022-07-05T07:37:43;21.70;1.00
9752;DHT22;4915;51.226;5.966;2022-07-05T07:40:10;22.50;1.00
9752;DHT22;4915;51.226;5.966;2022-07-05T07:42:37;22.30;1.00
9752;DHT22;4915;51.226;5.966;2022-07-05T07:45:05;22.20;1.00
9752;DHT22;4915;51.226;5.966;2022-07-05T07:47:34;23.30;1.00
9752;DHT22;4915;51.226;5.966;2022-07-05T07:50:01;24.20;99.90
9752;DHT22;4915;51.226;5.966;2022-07-05T07:52:28;24.50;1.00
9752;DHT22;4915;51.226;5.966;2022-07-05T07:54:58;23.70;1.00
9752;DHT22;4915;51.226;5.966;2022-07-05T07:57:25;23.80;99.90
9752;DHT22;4915;51.226;5.966;2022-07-05T07:59:52;24.00;99.90
9752;DHT22;4915;51.226;5.966;2022-07-05T08:02:19;24.40;99.90
9752;DHT22;4915;51.226;5.966;2022-07-05T08:04:49;25.00;1.00
9752;DHT22;4915;51.226;5.966;2022-07-05T08:07:16;24.80;1.00
9752;DHT22;4915;51.226;5.966;2022-07-05T08:09:45;26.00;1.00
9752;DHT22;4915;51.226;5.966;2022-07-05T08:12:14;26.50;99.90
9752;DHT22;4915;51.226;5.966;2022-07-05T08:14:41;26.60;99.90
9752;DHT22;4915;51.226;5.966;2022-07-05T08:17:09;27.20;1.00
9752;DHT22;4915;51.226;5.966;2022-07-05T08:19:36;26.40;99.90
9752;DHT22;4915;51.226;5.966;2022-07-05T08:22:21;26.20;99.90
9752;DHT22;4915;51.226;5.966;2022-07-05T08:24:49;25.10;99.90
9752;DHT22;4915;51.226;5.966;2022-07-05T08:27:17;25.50;1.00
9752;DHT22;4915;51.226;5.966;2022-07-05T08:29:44;25.70;1.00
9752;DHT22;4915;51.226;5.966;2022-07-05T08:32:12;25.40;1.00
9752;DHT22;4915;51.226;5.966;2022-07-05T08:34:39;24.90;1.00
9752;DHT22;4915;51.226;5.966;2022-07-05T08:37:07;24.70;1.00
9752;DHT22;4915;51.226;5.966;2022-07-05T08:39:34;24.50;1.00
9752;DHT22;4915;51.226;5.966;2022-07-05T08:42:02;24.50;1.00
9752;DHT22;4915;51.226;5.966;2022-07-05T08:44:33;25.20;1.00
9752;DHT22;4915;51.226;5.966;2022-07-05T08:47:08;24.90;1.00
9752;DHT22;4915;51.226;5.966;2022-07-05T08:49:37;24.70;1.00
9752;DHT22;4915;51.226;5.966;2022-07-05T08:52:09;26.20;99.90
9752;DHT22;4915;51.226;5.966;2022-07-05T08:54:37;26.60;1.00
9752;DHT22;4915;51.226;5.966;2022-07-05T08:57:05;26.60;1.00
9752;DHT22;4915;51.226;5.966;2022-07-05T08:59:33;26.10;99.90
9752;DHT22;4915;51.226;5.966;2022-07-05T09:02:01;25.70;99.90
9752;DHT22;4915;51.226;5.966;2022-07-05T09:04:31;25.60;99.90
9752;DHT22;4915;51.226;5.966;2022-07-05T09:07:03;25.70;11.40
9752;DHT22;4915;51.226;5.966;2022-07-05T09:09:33;25.50;1.00
9752;DHT22;4915;51.226;5.966;2022-07-05T09:12:05;26.10;1.00
9752;DHT22;4915;51.226;5.966;2022-07-05T09:14:33;26.50;1.00
9752;DHT22;4915;51.226;5.966;2022-07-05T09:17:01;27.70;99.90
9752;DHT22;4915;51.226;5.966;2022-07-05T09:19:29;27.50;99.90
9752;DHT22;4915;51.226;5.966;2022-07-05T09:22:01;26.40;99.90
9752;DHT22;4915;51.226;5.966;2022-07-05T09:24:29;25.90;1.00
9752;DHT22;4915;51.226;5.966;2022-07-05T09:27:02;25.40;99.90
9752;DHT22;4915;51.226;5.966;2022-07-05T09:29:30;26.20;99.90
9752;DHT22;4915;51.226;5.966;2022-07-05T09:31:59;27.20;99.90
9752;DHT22;4915;51.226;5.966;2022-07-05T09:34:28;28.70;1.00
9752;DHT22;4915;51.226;5.966;2022-07-05T09:36:58;28.70;1.00
9752;DHT22;4915;51.226;5.966;2022-07-05T09:39:36;28.60;1.00
9752;DHT22;4915;51.226;5.966;2022-07-05T09:42:14;27.60;99.90
9752;DHT22;4915;51.226;5.966;2022-07-05T09:44:44;27.50;99.90
9752;DHT22;4915;51.226;5.966;2022-07-05T09:47:14;27.40;99.90
9752;DHT22;4915;51.226;5.966;2022-07-05T09:49:43;26.80;99.90
9752;DHT22;4915;51.226;5.966;2022-07-05T09:52:11;27.00;99.90
9752;DHT22;4915;51.226;5.966;2022-07-05T09:55:01;26.60;1.00
9752;DHT22;4915;51.226;5.966;2022-07-05T09:57:28;27.00;99.90
9752;DHT22;4915;51.226;5.966;2022-07-05T09:59:58;26.70;99.90
9752;DHT22;4915;51.226;5.966;2022-07-05T10:02:41;26.20;99.90
9752;DHT22;4915;51.226;5.966;2022-07-05T10:05:10;27.10;99.90
9752;DHT22;4915;51.226;5.966;2022-07-05T10:07:40;26.90;43.20
9752;DHT22;4915;51.226;5.966;2022-07-05T10:10:08;26.30;99.90
9752;DHT22;4915;51.226;5.966;2022-07-05T10:12:36;25.60;99.90
9752;DHT22;4915;51.226;5.966;2022-07-05T10:15:05;25.70;99.90
9752;DHT22;4915;51.226;5.966;2022-07-05T10:17:38;26.50;1.00
9752;DHT22;4915;51.226;5.966;2022-07-05T10:20:14;28.10;99.90
9752;DHT22;4915;51.226;5.966;2022-07-05T10:22:44;29.10;1.00
9752;DHT22;4915;51.226;5.966;2022-07-05T10:25:11;28.80;63.60
9752;DHT22;4915;51.226;5.966;2022-07-05T10:27:39;29.40;99.90
9752;DHT22;4915;51.226;5.966;2022-07-05T10:30:07;28.70;99.90
9752;DHT22;4915;51.226;5.966;2022-07-05T10:32:35;28.10;99.90
9752;DHT22;4915;51.226;5.966;2022-07-05T10:35:02;27.40;1.00
9752;DHT22;4915;51.226;5.966;2022-07-05T10:37:32;26.80;99.90
9752;DHT22;4915;51.226;5.966;2022-07-05T10:40:02;26.50;99.90
9752;DHT22;4915;51.226;5.966;2022-07-05T10:42:34;26.20;1.00
9752;DHT22;4915;51.226;5.966;2022-07-05T10:45:03;26.10;99.90
9752;DHT22;4915;51.226;5.966;2022-07-05T10:48:15;27.90;99.90
9752;DHT22;4915;51.226;5.966;2022-07-05T10:50:47;29.00;99.90
9752;DHT22;4915;51.226;5.966;2022-07-05T10:53:18;28.80;99.90
9752;DHT22;4915;51.226;5.966;2022-07-05T10:55:51;28.60;99.90
9752;DHT22;4915;51.226;5.966;2022-07-05T10:58:20;28.70;1.00
9752;DHT22;4915;51.226;5.966;2022-07-05T11:03:34;27.90;99.90
9752;DHT22;4915;51.226;5.966;2022-07-05T11:06:02;27.60;1.00
9752;DHT22;4915;51.226;5.966;2022-07-05T11:11:38;27.80;1.00
9752;DHT22;4915;51.226;5.966;2022-07-05T11:14:29;28.00;99.90
9752;DHT22;4915;51.226;5.966;2022-07-05T11:17:14;27.90;67.30
9752;DHT22;4915;51.226;5.966;2022-07-05T11:20:16;27.90;45.30
9752;DHT22;4915;51.226;5.966;2022-07-05T11:23:09;29.30;1.00
9752;DHT22;4915;51.226;5.966;2022-07-05T11:25:40;29.60;1.00
9752;DHT22;4915;51.226;5.966;2022-07-05T11:28:19;29.20;99.90
9752;DHT22;4915;51.226;5.966;2022-07-05T11:30:54;29.20;99.90
9752;DHT22;4915;51.226;5.966;2022-07-05T11:33:29;27.80;99.90
9752;DHT22;4915;51.226;5.966;2022-07-05T11:35:57;27.40;99.90
9752;DHT22;4915;51.226;5.966;2022-07-05T11:38:24;26.70;1.00
9752;DHT22;4915;51.226;5.966;2022-07-05T11:40:53;26.50;99.90
9752;DHT22;4915;51.226;5.966;2022-07-05T11:43:27;26.50;99.90
9752;DHT22;4915;51.226;5.966;2022-07-05T11:45:57;27.40;1.00
9752;DHT22;4915;51.226;5.966;2022-07-05T11:48:26;28.00;99.90
9752;DHT22;4915;51.226;5.966;2022-07-05T11:50:53;28.70;99.90
9752;DHT22;4915;51.226;5.966;2022-07-05T11:53:28;27.70;1.00
9752;DHT22;4915;51.226;5.966;2022-07-05T11:55:58;26.80;1.00
9752;DHT22;4915;51.226;5.966;2022-07-05T11:58:30;26.20;99.90
9752;DHT22;4915;51.226;5.966;2022-07-05T12:00:59;26.40;1.00
9752;DHT22;4915;51.226;5.966;2022-07-05T12:03:27;26.30;1.00
9752;DHT22;4915;51.226;5.966;2022-07-05T12:05:54;27.50;1.00
9752;DHT22;4915;51.226;5.966;2022-07-05T12:08:21;28.50;99.90
9752;DHT22;4915;51.226;5.966;2022-07-05T12:10:49;26.90;8.00
9752;DHT22;4915;51.226;5.966;2022-07-05T12:13:45;28.00;1.00
9752;DHT22;4915;51.226;5.966;2022-07-05T12:16:13;29.50;99.90
9752;DHT22;4915;51.226;5.966;2022-07-05T12:18:47;29.30;1.00
9752;DHT22;4915;51.226;5.966;2022-07-05T12:21:15;28.70;1.00
9752;DHT22;4915;51.226;5.966;2022-07-05T12:23:42;27.30;99.90
9752;DHT22;4915;51.226;5.966;2022-07-05T12:26:11;26.50;1.00
9752;DHT22;4915;51.226;5.966;2022-07-05T12:28:38;26.10;1.00
9752;DHT22;4915;51.226;5.966;2022-07-05T12:31:23;25.60;1.00
9752;DHT22;4915;51.226;5.966;2022-07-05T12:33:51;26.40;1.00
9752;DHT22;4915;51.226;5.966;2022-07-05T12:36:21;27.60;19.30
9752;DHT22;4915;51.226;5.966;2022-07-05T12:38:49;28.20;99.90
9752;DHT22;4915;51.226;5.966;2022-07-05T12:41:22;28.70;2.30
9752;DHT22;4915;51.226;5.966;2022-07-05T12:43:51;29.30;1.00
9752;DHT22;4915;51.226;5.966;2022-07-05T12:46:18;28.10;1.00
9752;DHT22;4915;51.226;5.966;2022-07-05T12:48:51;26.90;99.90
9752;DHT22;4915;51.226;5.966;2022-07-05T12:51:32;26.80;1.00
9752;DHT22;4915;51.226;5.966;2022-07-05T12:54:00;27.10;1.00
9752;DHT22;4915;51.226;5.966;2022-07-05T12:56:49;27.60;99.90
9752;DHT22;4915;51.226;5.966;2022-07-05T12:59:56;28.60;1.00
9752;DHT22;4915;51.226;5.966;2022-07-05T13:02:34;28.90;1.00
9752;DHT22;4915;51.226;5.966;2022-07-05T13:05:03;27.40;1.00
9752;DHT22;4915;51.226;5.966;2022-07-05T13:07:30;27.90;99.90
9752;DHT22;4915;51.226;5.966;2022-07-05T13:10:13;27.50;1.00
9752;DHT22;4915;51.226;5.966;2022-07-05T13:12:40;27.00;1.00
9752;DHT22;4915;51.226;5.966;2022-07-05T13:15:08;26.40;99.90
9752;DHT22;4915;51.226;5.966;2022-07-05T13:17:35;26.20;1.00
9752;DHT22;4915;51.226;5.966;2022-07-05T13:20:05;25.90;1.00
9752;DHT22;4915;51.226;5.966;2022-07-05T13:22:32;25.80;1.00
9752;DHT22;4915;51.226;5.966;2022-07-05T13:24:59;25.90;1.00
9752;DHT22;4915;51.226;5.966;2022-07-05T13:27:26;26.10;99.90
9752;DHT22;4915;51.226;5.966;2022-07-05T13:29:53;26.00;99.90
9752;DHT22;4915;51.226;5.966;2022-07-05T13:32:21;26.10;1.00
9752;DHT22;4915;51.226;5.966;2022-07-05T13:34:48;26.40;1.00
9752;DHT22;4915;51.226;5.966;2022-07-05T13:37:17;26.40;1.00
9752;DHT22;4915;51.226;5.966;2022-07-05T13:39:44;25.40;1.00
9752;DHT22;4915;51.226;5.966;2022-07-05T13:42:11;24.70;1.00
9752;DHT22;4915;51.226;5.966;2022-07-05T13:44:38;24.30;99.90
9752;DHT22;4915;51.226;5.966;2022-07-05T13:47:05;24.50;1.00
9752;DHT22;4915;51.226;5.966;2022-07-05T13:49:32;24.70;99.90
9752;DHT22;4915;51.226;5.966;2022-07-05T13:51:59;25.00;1.00
9752;DHT22;4915;51.226;5.966;2022-07-05T13:54:29;25.00;99.90
9752;DHT22;4915;51.226;5.966;2022-07-05T13:56:56;25.00;29.70
9752;DHT22;4915;51.226;5.966;2022-07-05T13:59:23;25.00;99.90
9752;DHT22;4915;51.226;5.966;2022-07-05T14:01:50;25.20;13.20
9752;DHT22;4915;51.226;5.966;2022-07-05T14:04:17;25.30;1.00
9752;DHT22;4915;51.226;5.966;2022-07-05T14:06:44;25.00;99.90
9752;DHT22;4915;51.226;5.966;2022-07-05T14:09:11;24.80;99.90
9752;DHT22;4915;51.226;5.966;2022-07-05T14:11:40;24.90;1.00
9752;DHT22;4915;51.226;5.966;2022-07-05T14:14:07;24.80;1.00
9752;DHT22;4915;51.226;5.966;2022-07-05T14:16:36;24.60;1.00
9752;DHT22;4915;51.226;5.966;2022-07-05T14:19:03;24.60;1.00
9752;DHT22;4915;51.226;5.966;2022-07-05T14:21:30;24.70;1.00
9752;DHT22;4915;51.226;5.966;2022-07-05T14:23:57;24.50;99.90
9752;DHT22;4915;51.226;5.966;2022-07-05T14:26:24;24.50;1.00
9752;DHT22;4915;51.226;5.966;2022-07-05T14:28:54;24.60;1.00
9752;DHT22;4915;51.226;5.966;2022-07-05T14:31:22;24.70;1.00
9752;DHT22;4915;51.226;5.966;2022-07-05T14:33:49;24.70;1.00
9752;DHT22;4915;51.226;5.966;2022-07-05T14:36:16;24.90;99.90
9752;DHT22;4915;51.226;5.966;2022-07-05T14:38:45;25.00;1.00
9752;DHT22;4915;51.226;5.966;2022-07-05T14:41:12;25.20;99.90
9752;DHT22;4915;51.226;5.966;2022-07-05T14:43:39;25.40;99.90
9752;DHT22;4915;51.226;5.966;2022-07-05T14:46:07;25.50;99.90
9752;DHT22;4915;51.226;5.966;2022-07-05T14:48:37;25.30;99.90
9752;DHT22;4915;51.226;5.966;2022-07-05T14:51:05;25.00;99.90
9752;DHT22;4915;51.226;5.966;2022-07-05T14:53:32;25.10;99.90
9752;DHT22;4915;51.226;5.966;2022-07-05T14:55:59;25.50;1.00
9752;DHT22;4915;51.226;5.966;2022-07-05T14:58:26;25.70;1.00
9752;DHT22;4915;51.226;5.966;2022-07-05T15:00:57;25.80;99.90
9752;DHT22;4915;51.226;5.966;2022-07-05T15:03:26;25.70;1.00
9752;DHT22;4915;51.226;5.966;2022-07-05T15:05:53;25.30;1.00
9752;DHT22;4915;51.226;5.966;2022-07-05T15:08:20;24.80;99.90
9752;DHT22;4915;51.226;5.966;2022-07-05T15:10:48;24.80;99.90
9752;DHT22;4915;51.226;5.966;2022-07-05T15:13:15;24.80;99.90
9752;DHT22;4915;51.226;5.966;2022-07-05T15:15:42;24.60;1.00
9752;DHT22;4915;51.226;5.966;2022-07-05T15:18:09;24.30;1.00
9752;DHT22;4915;51.226;5.966;2022-07-05T15:20:38;24.20;99.90
9752;DHT22;4915;51.226;5.966;2022-07-05T15:23:05;24.00;99.90
9752;DHT22;4915;51.226;5.966;2022-07-05T15:25:32;23.80;99.90
9752;DHT22;4915;51.226;5.966;2022-07-05T15:27:59;23.70;99.90
9752;DHT22;4915;51.226;5.966;2022-07-05T15:30:26;23.60;99.90
9752;DHT22;4915;51.226;5.966;2022-07-05T15:32:53;23.50;1.00
9752;DHT22;4915;51.226;5.966;2022-07-05T15:35:20;23.50;1.00
9752;DHT22;4915;51.226;5.966;2022-07-05T15:37:48;23.50;99.90
9752;DHT22;4915;51.226;5.966;2022-07-05T15:40:15;23.50;99.90
9752;DHT22;4915;51.226;5.966;2022-07-05T15:42:43;23.60;99.90
9752;DHT22;4915;51.226;5.966;2022-07-05T15:45:10;23.60;99.90
9752;DHT22;4915;51.226;5.966;2022-07-05T15:47:37;23.50;1.00
9752;DHT22;4915;51.226;5.966;2022-07-05T15:50:06;23.40;1.00
9752;DHT22;4915;51.226;5.966;2022-07-05T15:52:35;23.60;99.90
9752;DHT22;4915;51.226;5.966;2022-07-05T15:55:05;23.80;99.90
9752;DHT22;4915;51.226;5.966;2022-07-05T15:57:32;23.80;1.00
9752;DHT22;4915;51.226;5.966;2022-07-05T15:59:59;23.60;99.90
9752;DHT22;4915;51.226;5.966;2022-07-05T16:02:26;23.50;1.00
9752;DHT22;4915;51.226;5.966;2022-07-05T16:04:53;23.40;1.00
9752;DHT22;4915;51.226;5.966;2022-07-05T16:07:20;23.30;1.00
9752;DHT22;4915;51.226;5.966;2022-07-05T16:09:47;23.40;99.90
9752;DHT22;4915;51.226;5.966;2022-07-05T16:12:19;23.50;99.90
9752;DHT22;4915;51.226;5.966;2022-07-05T16:14:46;23.40;99.90
9752;DHT22;4915;51.226;5.966;2022-07-05T16:17:13;23.30;1.00
9752;DHT22;4915;51.226;5.966;2022-07-05T16:19:40;23.10;1.00
9752;DHT22;4915;51.226;5.966;2022-07-05T16:22:08;22.80;99.90
9752;DHT22;4915;51.226;5.966;2022-07-05T16:24:35;22.50;99.90